sensor_id;sensor_type;location;lat;lon;timestamp;temperature;humidity
31575;DHT22;18182;1.328;103.810;2022-12-10T00:01:46;27.20;99.90
31575;DHT22;18182;1.328;103.810;2022-12-10T00:04:12;27.30;99.90
31575;DHT22;18182;1.328;103.810;2022-12-10T00:06:39;27.30;99.90
31575;DHT22;18182;1.328;103.810;2022-12-10T00:09:06;27.30;99.90
31575;DHT22;18182;1.328;103.810;2022-12-10T00:11:32;27.40;99.90
31575;DHT22;18182;1.328;103.810;2022-12-10T00:13:59;27.40;99.90
31575;DHT22;18182;1.328;103.810;2022-12-10T00:16:26;27.40;99.90
31575;DHT22;18182;1.328;103.810;2022-12-10T00:18:53;27.40;99.90
31575;DHT22;18182;1.328;103.810;2022-12-10T00:21:20;27.50;99.90
31575;DHT22;18182;1.328;103.810;2022-12-10T00:23:46;27.60;99.90
31575;DHT22;18182;1.328;103.810;2022-12-10T00:26:14;27.70;99.90
31575;DHT22;18182;1.328;103.810;2022-12-10T00:28:40;27.70;99.90
31575;DHT22;18182;1.328;103.810;2022-12-10T00:31:08;27.80;99.90
31575;DHT22;18182;1.328;103.810;2022-12-10T00:33:35;27.90;99.90
31575;DHT22;18182;1.328;103.810;2022-12-10T00:36:02;27.90;99.90
31575;DHT22;18182;1.328;103.810;2022-12-10T00:38:29;28.00;99.90
31575;DHT22;18182;1.328;103.810;2022-12-10T00:40:55;28.00;99.90
31575;DHT22;18182;1.328;103.810;2022-12-10T00:43:21;28.10;99.90
31575;DHT22;18182;1.328;103.810;2022-12-10T00:45:47;28.20;99.90
31575;DHT22;18182;1.328;103.810;2022-12-10T00:48:14;28.30;99.90
31575;DHT22;18182;1.328;103.810;2022-12-10T00:50:40;28.30;99.90
31575;DHT22;18182;1.328;103.810;2022-12-10T00:53:06;28.40;99.90
31575;DHT22;18182;1.328;103.810;2022-12-10T00:55:32;28.50;99.90
31575;DHT22;18182;1.328;103.810;2022-12-10T00:57:58;28.60;99.90
31575;DHT22;18182;1.328;103.810;2022-12-10T01:00:24;28.70;99.90
31575;DHT22;18182;1.328;103.810;2022-12-10T01:02:50;28.70;99.90
31575;DHT22;18182;1.328;103.810;2022-12-10T01:05:16;28.70;99.90
31575;DHT22;18182;1.328;103.810;2022-12-10T01:07:43;28.70;99.90
31575;DHT22;18182;1.328;103.810;2022-12-10T01:10:09;28.70;99.90
31575;DHT22;18182;1.328;103.810;2022-12-10T01:12:35;28.60;99.90
31575;DHT22;18182;1.328;103.810;2022-12-10T01:15:01;28.40;99.90
31575;DHT22;18182;1.328;103.810;2022-12-10T01:17:27;28.40;99.90
31575;DHT22;18182;1.328;103.810;2022-12-10T01:19:53;28.50;99.90
31575;DHT22;18182;1.328;103.810;2022-12-10T01:22:19;28.60;99.90
31575;DHT22;18182;1.328;103.810;2022-12-10T01:24:45;28.70;99.90
31575;DHT22;18182;1.328;103.810;2022-12-10T01:27:12;28.80;99.90
31575;DHT22;18182;1.328;103.810;2022-12-10T01:29:38;28.80;99.90
31575;DHT22;18182;1.328;103.810;2022-12-10T01:32:04;28.90;99.90
31575;DHT22;18182;1.328;103.810;2022-12-10T01:34:30;28.90;99.90
31575;DHT22;18182;1.328;103.810;2022-12-10T01:36:56;28.80;99.90
31575;DHT22;18182;1.328;103.810;2022-12-10T01:39:23;28.70;99.90
31575;DHT22;18182;1.328;103.810;2022-12-10T01:41:50;28.70;99.90
31575;DHT22;18182;1.328;103.810;2022-12-10T01:46:43;28.60;99.90
31575;DHT22;18182;1.328;103.810;2022-12-10T01:49:11;28.50;99.90
31575;DHT22;18182;1.328;103.810;2022-12-10T01:51:38;28.40;99.90
31575;DHT22;18182;1.328;103.810;2022-12-10T01:54:06;28.40;99.90
31575;DHT22;18182;1.328;103.810;2022-12-10T01:56:36;28.40;99.90
31575;DHT22;18182;1.328;103.810;2022-12-10T01:59:02;28.40;99.90
31575;DHT22;18182;1.328;103.810;2022-12-10T02:09:20;28.30;99.90
31575;DHT22;18182;1.328;103.810;2022-12-10T02:14:34;28.30;99.90
31575;DHT22;18182;1.328;103.810;2022-12-10T02:17:13;28.30;99.90
31575;DHT22;18182;1.328;103.810;2022-12-10T02:22:06;28.20;99.90
31575;DHT22;18182;1.328;103.810;2022-12-10T02:24:33;28.20;99.90
31575;DHT22;18182;1.328;103.810;2022-12-10T02:29:27;28.20;99.90
31575;DHT22;18182;1.328;103.810;2022-12-10T02:32:11;28.20;99.90
31575;DHT22;18182;1.328;103.810;2022-12-10T02:34:43;28.20;99.90
31575;DHT22;18182;1.328;103.810;2022-12-10T02:37:16;28.20;99.90
31575;DHT22;18182;1.328;103.810;2022-12-10T02:39:45;28.20;99.90
31575;DHT22;18182;1.328;103.810;2022-12-10T02:42:12;28.30;99.90
31575;DHT22;18182;1.328;103.810;2022-12-10T02:44:40;28.30;99.90
31575;DHT22;18182;1.328;103.810;2022-12-10T02:47:08;28.30;99.90
31575;DHT22;18182;1.328;103.810;2022-12-10T02:49:35;28.40;99.90
31575;DHT22;18182;1.328;103.810;2022-12-10T02:52:06;28.40;99.90
31575;DHT22;18182;1.328;103.810;2022-12-10T02:57:00;28.50;99.90
31575;DHT22;18182;1.328;103.810;2022-12-10T02:59:31;28.50;99.90
31575;DHT22;18182;1.328;103.810;2022-12-10T03:02:02;28.50;99.90
31575;DHT22;18182;1.328;103.810;2022-12-10T03:04:51;28.60;99.90
31575;DHT22;18182;1.328;103.810;2022-12-10T03:07:22;28.60;99.90
31575;DHT22;18182;1.328;103.810;2022-12-10T03:10:00;28.60;99.90
31575;DHT22;18182;1.328;103.810;2022-12-10T03:12:47;28.70;99.90
31575;DHT22;18182;1.328;103.810;2022-12-10T03:15:14;28.70;99.90
31575;DHT22;18182;1.328;103.810;2022-12-10T03:17:41;28.80;99.90
31575;DHT22;18182;1.328;103.810;2022-12-10T03:20:10;28.90;99.90
31575;DHT22;18182;1.328;103.810;2022-12-10T03:22:37;28.90;99.90
31575;DHT22;18182;1.328;103.810;2022-12-10T03:25:05;28.90;99.90
31575;DHT22;18182;1.328;103.810;2022-12-10T03:27:31;29.00;99.90
31575;DHT22;18182;1.328;103.810;2022-12-10T03:29:58;29.00;99.90
31575;DHT22;18182;1.328;103.810;2022-12-10T03:32:26;28.90;99.90
31575;DHT22;18182;1.328;103.810;2022-12-10T03:34:54;28.90;99.90
31575;DHT22;18182;1.328;103.810;2022-12-10T03:37:21;28.90;99.90
31575;DHT22;18182;1.328;103.810;2022-12-10T03:39:47;29.00;99.90
31575;DHT22;18182;1.328;103.810;2022-12-10T03:42:13;29.10;99.90
31575;DHT22;18182;1.328;103.810;2022-12-10T03:44:40;29.10;99.90
31575;DHT22;18182;1.328;103.810;2022-12-10T03:47:07;29.10;99.90
31575;DHT22;18182;1.328;103.810;2022-12-10T03:49:34;29.10;99.90
31575;DHT22;18182;1.328;103.810;2022-12-10T03:52:00;29.10;99.90
31575;DHT22;18182;1.328;103.810;2022-12-10T03:54:26;29.10;99.90
31575;DHT22;18182;1.328;103.810;2022-12-10T03:56:52;29.10;99.90
31575;DHT22;18182;1.328;103.810;2022-12-10T03:59:19;29.10;99.90
31575;DHT22;18182;1.328;103.810;2022-12-10T04:01:45;29.10;99.90
31575;DHT22;18182;1.328;103.810;2022-12-10T04:04:11;29.10;99.90
31575;DHT22;18182;1.328;103.810;2022-12-10T04:06:38;29.10;99.90
31575;DHT22;18182;1.328;103.810;2022-12-10T04:09:04;29.20;99.90
31575;DHT22;18182;1.328;103.810;2022-12-10T04:11:31;29.20;99.90
31575;DHT22;18182;1.328;103.810;2022-12-10T04:13:57;29.30;99.90
31575;DHT22;18182;1.328;103.810;2022-12-10T04:16:41;29.30;99.90
31575;DHT22;18182;1.328;103.810;2022-12-10T04:19:09;29.40;99.90
31575;DHT22;18182;1.328;103.810;2022-12-10T04:21:35;29.50;99.90
31575;DHT22;18182;1.328;103.810;2022-12-10T04:24:24;29.50;99.90
31575;DHT22;18182;1.328;103.810;2022-12-10T04:27:12;29.50;99.90
31575;DHT22;18182;1.328;103.810;2022-12-10T04:29:39;29.60;99.90
31575;DHT22;18182;1.328;103.810;2022-12-10T04:32:05;29.60;99.90
31575;DHT22;18182;1.328;103.810;2022-12-10T04:34:32;29.60;99.90
31575;DHT22;18182;1.328;103.810;2022-12-10T04:36:58;29.60;99.90
31575;DHT22;18182;1.328;103.810;2022-12-10T04:39:25;29.70;99.90
31575;DHT22;18182;1.328;103.810;2022-12-10T04:41:51;29.70;99.90
31575;DHT22;18182;1.328;103.810;2022-12-10T04:44:17;29.70;99.90
31575;DHT22;18182;1.328;103.810;2022-12-10T04:46:44;29.80;99.90
31575;DHT22;18182;1.328;103.810;2022-12-10T04:49:10;29.80;99.90
31575;DHT22;18182;1.328;103.810;2022-12-10T04:51:36;29.80;99.90
31575;DHT22;18182;1.328;103.810;2022-12-10T04:54:03;29.80;99.90
31575;DHT22;18182;1.328;103.810;2022-12-10T04:56:29;29.90;99.90
31575;DHT22;18182;1.328;103.810;2022-12-10T04:58:56;29.90;99.90
31575;DHT22;18182;1.328;103.810;2022-12-10T05:01:22;29.90;99.90
31575;DHT22;18182;1.328;103.810;2022-12-10T05:03:49;29.90;99.90
31575;DHT22;18182;1.328;103.810;2022-12-10T05:06:16;29.90;99.90
31575;DHT22;18182;1.328;103.810;2022-12-10T05:08:42;29.90;99.90
31575;DHT22;18182;1.328;103.810;2022-12-10T05:11:10;30.00;99.90
31575;DHT22;18182;1.328;103.810;2022-12-10T05:13:36;30.00;99.90
31575;DHT22;18182;1.328;103.810;2022-12-10T05:16:03;30.10;99.90
31575;DHT22;18182;1.328;103.810;2022-12-10T05:18:30;30.10;99.90
31575;DHT22;18182;1.328;103.810;2022-12-10T05:20:59;30.20;99.90
31575;DHT22;18182;1.328;103.810;2022-12-10T05:23:25;30.20;99.90
31575;DHT22;18182;1.328;103.810;2022-12-10T05:26:05;30.30;99.90
31575;DHT22;18182;1.328;103.810;2022-12-10T05:28:33;30.20;99.90
31575;DHT22;18182;1.328;103.810;2022-12-10T05:30:59;30.20;99.90
31575;DHT22;18182;1.328;103.810;2022-12-10T05:33:26;30.20;99.90
31575;DHT22;18182;1.328;103.810;2022-12-10T05:35:56;30.20;99.90
31575;DHT22;18182;1.328;103.810;2022-12-10T05:38:22;30.20;99.90
31575;DHT22;18182;1.328;103.810;2022-12-10T05:40:48;30.10;99.90
31575;DHT22;18182;1.328;103.810;2022-12-10T05:43:15;30.20;99.90
31575;DHT22;18182;1.328;103.810;2022-12-10T05:45:41;30.30;99.90
31575;DHT22;18182;1.328;103.810;2022-12-10T05:48:08;30.30;99.90
31575;DHT22;18182;1.328;103.810;2022-12-10T05:50:35;30.30;99.90
31575;DHT22;18182;1.328;103.810;2022-12-10T05:53:01;30.40;99.90
31575;DHT22;18182;1.328;103.810;2022-12-10T05:55:27;30.30;99.90
31575;DHT22;18182;1.328;103.810;2022-12-10T05:57:54;30.20;99.90
31575;DHT22;18182;1.328;103.810;2022-12-10T06:00:21;30.20;99.90
31575;DHT22;18182;1.328;103.810;2022-12-10T06:02:49;30.20;99.90
31575;DHT22;18182;1.328;103.810;2022-12-10T06:05:15;30.10;99.90
31575;DHT22;18182;1.328;103.810;2022-12-10T06:07:42;30.10;99.90
31575;DHT22;18182;1.328;103.810;2022-12-10T06:10:08;30.10;99.90
31575;DHT22;18182;1.328;103.810;2022-12-10T06:12:34;30.20;99.90
31575;DHT22;18182;1.328;103.810;2022-12-10T06:15:00;30.10;99.90
31575;DHT22;18182;1.328;103.810;2022-12-10T06:17:26;30.10;99.90
31575;DHT22;18182;1.328;103.810;2022-12-10T06:19:53;30.10;99.90
31575;DHT22;18182;1.328;103.810;2022-12-10T06:22:19;30.00;99.90
31575;DHT22;18182;1.328;103.810;2022-12-10T06:24:45;30.00;99.90
31575;DHT22;18182;1.328;103.810;2022-12-10T06:27:11;30.00;99.90
31575;DHT22;18182;1.328;103.810;2022-12-10T06:29:37;30.10;99.90
31575;DHT22;18182;1.328;103.810;2022-12-10T06:32:03;30.10;99.90
31575;DHT22;18182;1.328;103.810;2022-12-10T06:34:30;30.10;99.90
31575;DHT22;18182;1.328;103.810;2022-12-10T06:36:56;30.10;99.90
31575;DHT22;18182;1.328;103.810;2022-12-10T06:39:22;30.10;99.90
31575;DHT22;18182;1.328;103.810;2022-12-10T06:41:48;30.20;99.90
31575;DHT22;18182;1.328;103.810;2022-12-10T06:44:14;30.30;99.90
31575;DHT22;18182;1.328;103.810;2022-12-10T06:46:40;30.30;99.90
31575;DHT22;18182;1.328;103.810;2022-12-10T06:49:06;30.30;99.90
31575;DHT22;18182;1.328;103.810;2022-12-10T06:51:33;30.30;99.90
31575;DHT22;18182;1.328;103.810;2022-12-10T06:53:59;30.30;99.90
31575;DHT22;18182;1.328;103.810;2022-12-10T06:56:25;30.20;99.90
31575;DHT22;18182;1.328;103.810;2022-12-10T06:58:51;30.10;99.90
31575;DHT22;18182;1.328;103.810;2022-12-10T07:01:19;30.10;99.90
31575;DHT22;18182;1.328;103.810;2022-12-10T07:03:49;30.20;99.90
31575;DHT22;18182;1.328;103.810;2022-12-10T07:06:16;30.20;99.90
31575;DHT22;18182;1.328;103.810;2022-12-10T07:08:42;30.20;99.90
31575;DHT22;18182;1.328;103.810;2022-12-10T07:11:09;30.30;99.90
31575;DHT22;18182;1.328;103.810;2022-12-10T07:13:36;30.30;99.90
31575;DHT22;18182;1.328;103.810;2022-12-10T07:16:03;30.30;99.90
31575;DHT22;18182;1.328;103.810;2022-12-10T07:18:36;30.30;99.90
31575;DHT22;18182;1.328;103.810;2022-12-10T07:21:11;30.30;99.90
31575;DHT22;18182;1.328;103.810;2022-12-10T07:23:38;30.30;99.90
31575;DHT22;18182;1.328;103.810;2022-12-10T07:26:04;30.30;99.90
31575;DHT22;18182;1.328;103.810;2022-12-10T07:28:30;30.30;99.90
31575;DHT22;18182;1.328;103.810;2022-12-10T07:31:02;30.20;99.90
31575;DHT22;18182;1.328;103.810;2022-12-10T07:33:29;30.10;99.90
31575;DHT22;18182;1.328;103.810;2022-12-10T07:35:55;30.10;99.90
31575;DHT22;18182;1.328;103.810;2022-12-10T07:38:24;30.10;99.90
31575;DHT22;18182;1.328;103.810;2022-12-10T07:40:51;30.10;99.90
31575;DHT22;18182;1.328;103.810;2022-12-10T07:43:17;30.10;99.90
31575;DHT22;18182;1.328;103.810;2022-12-10T07:45:43;30.10;99.90
31575;DHT22;18182;1.328;103.810;2022-12-10T07:48:10;30.10;99.90
31575;DHT22;18182;1.328;103.810;2022-12-10T07:50:36;30.10;99.90
31575;DHT22;18182;1.328;103.810;2022-12-10T07:53:02;30.20;99.90
31575;DHT22;18182;1.328;103.810;2022-12-10T07:55:29;30.20;99.90
31575;DHT22;18182;1.328;103.810;2022-12-10T07:57:55;30.20;99.90
31575;DHT22;18182;1.328;103.810;2022-12-10T08:00:21;30.10;99.90
31575;DHT22;18182;1.328;103.810;2022-12-10T08:02:48;30.10;99.90
31575;DHT22;18182;1.328;103.810;2022-12-10T08:05:14;30.10;99.90
31575;DHT22;18182;1.328;103.810;2022-12-10T08:07:40;30.10;99.90
31575;DHT22;18182;1.328;103.810;2022-12-10T08:10:07;30.20;99.90
31575;DHT22;18182;1.328;103.810;2022-12-10T08:12:33;30.20;99.90
31575;DHT22;18182;1.328;103.810;2022-12-10T08:14:59;30.20;99.90
31575;DHT22;18182;1.328;103.810;2022-12-10T08:17:25;30.20;99.90
31575;DHT22;18182;1.328;103.810;2022-12-10T08:19:51;30.30;99.90
31575;DHT22;18182;1.328;103.810;2022-12-10T08:22:17;30.30;99.90
31575;DHT22;18182;1.328;103.810;2022-12-10T08:24:44;30.30;99.90
31575;DHT22;18182;1.328;103.810;2022-12-10T08:27:10;30.30;99.90
31575;DHT22;18182;1.328;103.810;2022-12-10T08:29:36;30.20;99.90
31575;DHT22;18182;1.328;103.810;2022-12-10T08:32:03;30.20;99.90
31575;DHT22;18182;1.328;103.810;2022-12-10T08:34:29;30.10;99.90
31575;DHT22;18182;1.328;103.810;2022-12-10T08:36:55;30.10;99.90
31575;DHT22;18182;1.328;103.810;2022-12-10T08:39:21;30.10;99.90
31575;DHT22;18182;1.328;103.810;2022-12-10T08:41:48;30.00;99.90
31575;DHT22;18182;1.328;103.810;2022-12-10T08:44:14;30.00;99.90
31575;DHT22;18182;1.328;103.810;2022-12-10T08:46:41;29.90;99.90
31575;DHT22;18182;1.328;103.810;2022-12-10T08:49:07;29.90;99.90
31575;DHT22;18182;1.328;103.810;2022-12-10T08:51:33;29.90;99.90
31575;DHT22;18182;1.328;103.810;2022-12-10T08:53:59;29.80;99.90
31575;DHT22;18182;1.328;103.810;2022-12-10T08:56:26;29.80;99.90
31575;DHT22;18182;1.328;103.810;2022-12-10T08:58:52;29.90;99.90
31575;DHT22;18182;1.328;103.810;2022-12-10T09:01:18;29.80;99.90
31575;DHT22;18182;1.328;103.810;2022-12-10T09:03:44;29.80;99.90
31575;DHT22;18182;1.328;103.810;2022-12-10T09:06:12;29.80;99.90
31575;DHT22;18182;1.328;103.810;2022-12-10T09:08:38;29.80;99.90
31575;DHT22;18182;1.328;103.810;2022-12-10T09:11:08;29.80;99.90
31575;DHT22;18182;1.328;103.810;2022-12-10T09:13:34;29.80;99.90
31575;DHT22;18182;1.328;103.810;2022-12-10T09:16:00;29.80;99.90
31575;DHT22;18182;1.328;103.810;2022-12-10T09:18:27;29.70;99.90
31575;DHT22;18182;1.328;103.810;2022-12-10T09:20:53;29.70;99.90
31575;DHT22;18182;1.328;103.810;2022-12-10T09:23:19;29.70;99.90
31575;DHT22;18182;1.328;103.810;2022-12-10T09:25:45;29.70;99.90
31575;DHT22;18182;1.328;103.810;2022-12-10T09:28:11;29.70;99.90
31575;DHT22;18182;1.328;103.810;2022-12-10T09:30:37;29.70;99.90
31575;DHT22;18182;1.328;103.810;2022-12-10T09:33:04;29.70;99.90
31575;DHT22;18182;1.328;103.810;2022-12-10T09:35:30;29.70;99.90
31575;DHT22;18182;1.328;103.810;2022-12-10T09:37:56;29.60;99.90
31575;DHT22;18182;1.328;103.810;2022-12-10T09:40:45;29.60;99.90
31575;DHT22;18182;1.328;103.810;2022-12-10T09:51:01;29.50;99.90
31575;DHT22;18182;1.328;103.810;2022-12-10T09:53:30;29.50;99.90
31575;DHT22;18182;1.328;103.810;2022-12-10T09:55:56;29.50;99.90
31575;DHT22;18182;1.328;103.810;2022-12-10T09:58:24;29.50;99.90
31575;DHT22;18182;1.328;103.810;2022-12-10T10:01:00;29.50;99.90
31575;DHT22;18182;1.328;103.810;2022-12-10T10:03:27;29.40;99.90
31575;DHT22;18182;1.328;103.810;2022-12-10T10:05:56;29.40;99.90
31575;DHT22;18182;1.328;103.810;2022-12-10T10:08:31;29.40;99.90
31575;DHT22;18182;1.328;103.810;2022-12-10T10:10:58;29.40;99.90
31575;DHT22;18182;1.328;103.810;2022-12-10T10:13:34;29.40;99.90
31575;DHT22;18182;1.328;103.810;2022-12-10T10:16:13;29.40;99.90
31575;DHT22;18182;1.328;103.810;2022-12-10T10:18:50;29.40;99.90
31575;DHT22;18182;1.328;103.810;2022-12-10T10:21:22;29.40;99.90
31575;DHT22;18182;1.328;103.810;2022-12-10T10:23:49;29.40;99.90
31575;DHT22;18182;1.328;103.810;2022-12-10T10:26:15;29.30;99.90
31575;DHT22;18182;1.328;103.810;2022-12-10T10:28:41;29.40;99.90
31575;DHT22;18182;1.328;103.810;2022-12-10T10:31:19;29.30;99.90
31575;DHT22;18182;1.328;103.810;2022-12-10T10:33:50;29.30;99.90
31575;DHT22;18182;1.328;103.810;2022-12-10T10:36:32;29.30;99.90
31575;DHT22;18182;1.328;103.810;2022-12-10T10:39:09;29.30;99.90
31575;DHT22;18182;1.328;103.810;2022-12-10T10:41:36;29.20;99.90
31575;DHT22;18182;1.328;103.810;2022-12-10T10:44:05;29.20;99.90
31575;DHT22;18182;1.328;103.810;2022-12-10T10:46:38;29.20;99.90
31575;DHT22;18182;1.328;103.810;2022-12-10T10:51:51;29.20;99.90
31575;DHT22;18182;1.328;103.810;2022-12-10T10:54:50;29.10;99.90
31575;DHT22;18182;1.328;103.810;2022-12-10T10:59:40;29.10;99.90
31575;DHT22;18182;1.328;103.810;2022-12-10T11:02:17;29.10;99.90
31575;DHT22;18182;1.328;103.810;2022-12-10T11:04:48;29.00;99.90
31575;DHT22;18182;1.328;103.810;2022-12-10T11:07:19;29.00;99.90
31575;DHT22;18182;1.328;103.810;2022-12-10T11:09:46;29.00;99.90
31575;DHT22;18182;1.328;103.810;2022-12-10T11:12:30;29.00;99.90
31575;DHT22;18182;1.328;103.810;2022-12-10T11:14:58;29.00;99.90
31575;DHT22;18182;1.328;103.810;2022-12-10T11:17:26;28.90;99.90
31575;DHT22;18182;1.328;103.810;2022-12-10T11:19:54;29.00;99.90
31575;DHT22;18182;1.328;103.810;2022-12-10T11:22:21;28.90;99.90
31575;DHT22;18182;1.328;103.810;2022-12-10T11:24:48;28.90;99.90
31575;DHT22;18182;1.328;103.810;2022-12-10T11:40:09;28.90;99.90
31575;DHT22;18182;1.328;103.810;2022-12-10T12:05:48;28.80;99.90
31575;DHT22;18182;1.328;103.810;2022-12-10T12:11:05;28.80;99.90
31575;DHT22;18182;1.328;103.810;2022-12-10T12:16:16;28.80;99.90
31575;DHT22;18182;1.328;103.810;2022-12-10T12:18:47;28.90;99.90
31575;DHT22;18182;1.328;103.810;2022-12-10T12:21:15;28.80;99.90
31575;DHT22;18182;1.328;103.810;2022-12-10T12:26:32;28.80;99.90
31575;DHT22;18182;1.328;103.810;2022-12-10T12:31:39;28.70;99.90
31575;DHT22;18182;1.328;103.810;2022-12-10T12:34:18;28.70;99.90
31575;DHT22;18182;1.328;103.810;2022-12-10T12:36:46;28.70;99.90
31575;DHT22;18182;1.328;103.810;2022-12-10T12:44:27;28.60;99.90
31575;DHT22;18182;1.328;103.810;2022-12-10T12:46:58;28.60;99.90
31575;DHT22;18182;1.328;103.810;2022-12-10T12:49:34;28.50;99.90
31575;DHT22;18182;1.328;103.810;2022-12-10T12:54:46;28.50;99.90
31575;DHT22;18182;1.328;103.810;2022-12-10T13:00:03;28.50;99.90
31575;DHT22;18182;1.328;103.810;2022-12-10T13:05:08;28.50;99.90
31575;DHT22;18182;1.328;103.810;2022-12-10T13:07:38;28.50;99.90
31575;DHT22;18182;1.328;103.810;2022-12-10T13:12:46;28.50;99.90
31575;DHT22;18182;1.328;103.810;2022-12-10T13:15:21;28.50;99.90
31575;DHT22;18182;1.328;103.810;2022-12-10T13:18:01;28.50;99.90
31575;DHT22;18182;1.328;103.810;2022-12-10T13:20:44;28.50;99.90
31575;DHT22;18182;1.328;103.810;2022-12-10T13:31:15;28.40;99.90
31575;DHT22;18182;1.328;103.810;2022-12-10T13:33:47;28.40;99.90
31575;DHT22;18182;1.328;103.810;2022-12-10T13:36:13;28.40;99.90
31575;DHT22;18182;1.328;103.810;2022-12-10T13:38:40;28.40;99.90
31575;DHT22;18182;1.328;103.810;2022-12-10T13:41:07;28.40;99.90
31575;DHT22;18182;1.328;103.810;2022-12-10T13:44:21;28.40;99.90
31575;DHT22;18182;1.328;103.810;2022-12-10T13:49:20;28.40;99.90
31575;DHT22;18182;1.328;103.810;2022-12-10T13:51:52;28.30;99.90
31575;DHT22;18182;1.328;103.810;2022-12-10T13:54:36;28.30;99.90
31575;DHT22;18182;1.328;103.810;2022-12-10T13:57:09;28.30;99.90
31575;DHT22;18182;1.328;103.810;2022-12-10T14:07:21;28.30;99.90
31575;DHT22;18182;1.328;103.810;2022-12-10T14:09:49;28.30;99.90
31575;DHT22;18182;1.328;103.810;2022-12-10T14:12:17;28.40;99.90
31575;DHT22;18182;1.328;103.810;2022-12-10T14:14:48;28.40;99.90
31575;DHT22;18182;1.328;103.810;2022-12-10T14:17:18;28.40;99.90
31575;DHT22;18182;1.328;103.810;2022-12-10T14:19:45;28.40;99.90
31575;DHT22;18182;1.328;103.810;2022-12-10T14:22:13;28.40;99.90
31575;DHT22;18182;1.328;103.810;2022-12-10T14:24:41;28.40;99.90
31575;DHT22;18182;1.328;103.810;2022-12-10T14:27:13;28.40;99.90
31575;DHT22;18182;1.328;103.810;2022-12-10T14:29:49;28.40;99.90
31575;DHT22;18182;1.328;103.810;2022-12-10T14:32:16;28.40;99.90
31575;DHT22;18182;1.328;103.810;2022-12-10T14:34:46;28.40;99.90
31575;DHT22;18182;1.328;103.810;2022-12-10T14:37:15;28.40;99.90
31575;DHT22;18182;1.328;103.810;2022-12-10T14:39:41;28.40;99.90
31575;DHT22;18182;1.328;103.810;2022-12-10T14:42:09;28.40;99.90
31575;DHT22;18182;1.328;103.810;2022-12-10T14:44:38;28.40;99.90
31575;DHT22;18182;1.328;103.810;2022-12-10T14:47:10;28.40;99.90
31575;DHT22;18182;1.328;103.810;2022-12-10T14:49:39;28.40;99.90
31575;DHT22;18182;1.328;103.810;2022-12-10T14:52:16;28.40;99.90
31575;DHT22;18182;1.328;103.810;2022-12-10T14:54:43;28.40;99.90
31575;DHT22;18182;1.328;103.810;2022-12-10T14:57:22;28.40;99.90
31575;DHT22;18182;1.328;103.810;2022-12-10T15:02:24;28.40;99.90
31575;DHT22;18182;1.328;103.810;2022-12-10T15:04:51;28.40;99.90
31575;DHT22;18182;1.328;103.810;2022-12-10T15:07:25;28.40;99.90
31575;DHT22;18182;1.328;103.810;2022-12-10T15:09:52;28.40;99.90
31575;DHT22;18182;1.328;103.810;2022-12-10T15:12:26;28.40;99.90
31575;DHT22;18182;1.328;103.810;2022-12-10T15:14:57;28.40;99.90
31575;DHT22;18182;1.328;103.810;2022-12-10T15:17:52;28.40;99.90
31575;DHT22;18182;1.328;103.810;2022-12-10T15:20:20;28.40;99.90
31575;DHT22;18182;1.328;103.810;2022-12-10T15:22:47;28.40;99.90
31575;DHT22;18182;1.328;103.810;2022-12-10T15:25:27;28.30;99.90
31575;DHT22;18182;1.328;103.810;2022-12-10T15:28:00;28.30;99.90
31575;DHT22;18182;1.328;103.810;2022-12-10T15:30:34;28.30;99.90
31575;DHT22;18182;1.328;103.810;2022-12-10T15:33:00;28.30;99.90
31575;DHT22;18182;1.328;103.810;2022-12-10T15:35:27;28.30;99.90
31575;DHT22;18182;1.328;103.810;2022-12-10T15:37:53;28.30;99.90
31575;DHT22;18182;1.328;103.810;2022-12-10T15:40:23;28.30;99.90
31575;DHT22;18182;1.328;103.810;2022-12-10T15:42:49;28.30;99.90
31575;DHT22;18182;1.328;103.810;2022-12-10T15:45:23;28.30;99.90
31575;DHT22;18182;1.328;103.810;2022-12-10T15:47:51;28.20;99.90
31575;DHT22;18182;1.328;103.810;2022-12-10T15:50:17;28.20;99.90
31575;DHT22;18182;1.328;103.810;2022-12-10T15:52:44;28.20;99.90
31575;DHT22;18182;1.328;103.810;2022-12-10T15:55:11;28.20;99.90
31575;DHT22;18182;1.328;103.810;2022-12-10T15:57:38;28.20;99.90
31575;DHT22;18182;1.328;103.810;2022-12-10T16:00:19;28.20;99.90
31575;DHT22;18182;1.328;103.810;2022-12-10T16:07:42;28.20;99.90
31575;DHT22;18182;1.328;103.810;2022-12-10T16:10:11;28.20;99.90
31575;DHT22;18182;1.328;103.810;2022-12-10T16:12:37;28.20;99.90
31575;DHT22;18182;1.328;103.810;2022-12-10T16:15:04;28.20;99.90
31575;DHT22;18182;1.328;103.810;2022-12-10T16:17:31;28.20;99.90
31575;DHT22;18182;1.328;103.810;2022-12-10T16:20:09;28.20;99.90
31575;DHT22;18182;1.328;103.810;2022-12-10T16:22:39;28.20;99.90
31575;DHT22;18182;1.328;103.810;2022-12-10T16:25:05;28.20;99.90
31575;DHT22;18182;1.328;103.810;2022-12-10T16:27:31;28.20;99.90
31575;DHT22;18182;1.328;103.810;2022-12-10T16:29:58;28.20;99.90
31575;DHT22;18182;1.328;103.810;2022-12-10T16:32:24;28.20;99.90
31575;DHT22;18182;1.328;103.810;2022-12-10T16:34:50;28.10;99.90
31575;DHT22;18182;1.328;103.810;2022-12-10T16:37:17;28.10;99.90
31575;DHT22;18182;1.328;103.810;2022-12-10T16:39:43;28.20;99.90
31575;DHT22;18182;1.328;103.810;2022-12-10T16:42:10;28.20;99.90
31575;DHT22;18182;1.328;103.810;2022-12-10T16:44:37;28.10;99.90
31575;DHT22;18182;1.328;103.810;2022-12-10T16:47:12;28.10;99.90
31575;DHT22;18182;1.328;103.810;2022-12-10T16:49:38;28.10;99.90
31575;DHT22;18182;1.328;103.810;2022-12-10T16:52:04;28.10;99.90
31575;DHT22;18182;1.328;103.810;2022-12-10T16:54:30;28.10;99.90
31575;DHT22;18182;1.328;103.810;2022-12-10T16:56:57;28.10;99.90
31575;DHT22;18182;1.328;103.810;2022-12-10T16:59:23;28.10;99.90
31575;DHT22;18182;1.328;103.810;2022-12-10T17:01:49;28.10;99.90
31575;DHT22;18182;1.328;103.810;2022-12-10T17:04:16;28.10;99.90
31575;DHT22;18182;1.328;103.810;2022-12-10T17:06:42;28.10;99.90
31575;DHT22;18182;1.328;103.810;2022-12-10T17:09:08;28.00;99.90
31575;DHT22;18182;1.328;103.810;2022-12-10T17:11:43;28.00;99.90
31575;DHT22;18182;1.328;103.810;2022-12-10T17:14:36;28.10;99.90
31575;DHT22;18182;1.328;103.810;2022-12-10T17:17:02;28.00;99.90
31575;DHT22;18182;1.328;103.810;2022-12-10T17:19:29;28.10;99.90
31575;DHT22;18182;1.328;103.810;2022-12-10T17:21:57;28.10;99.90
31575;DHT22;18182;1.328;103.810;2022-12-10T17:24:23;28.00;99.90
31575;DHT22;18182;1.328;103.810;2022-12-10T17:26:49;28.00;99.90